createdAt,value
2022-11-15T00:00:53.475Z,76.65
2022-11-15T00:03:22.688Z,74.80
2022-11-15T00:05:49.657Z,77.07
2022-11-15T00:08:16.755Z,73.95
2022-11-15T00:10:43.998Z,80.60
2022-11-15T00:13:12.839Z,81.07
2022-11-15T00:15:41.207Z,82.10
2022-11-15T00:18:15.717Z,80.93
2022-11-15T00:20:42.493Z,79.05
2022-11-15T00:23:09.215Z,82.28
2022-11-15T00:25:36.280Z,81.85
2022-11-15T00:28:03.451Z,77.97
2022-11-15T00:30:30.153Z,81.43
2022-11-15T00:32:56.923Z,83.18
2022-11-15T00:35:23.621Z,84.32
2022-11-15T00:37:50.258Z,86.90
2022-11-15T00:40:17.088Z,82.80
2022-11-15T00:42:43.752Z,81.95
2022-11-15T00:45:10.801Z,86.03
2022-11-15T00:47:37.597Z,81.93
2022-11-15T00:50:05.153Z,82.82
2022-11-15T00:52:31.992Z,81.65
2022-11-15T00:54:58.666Z,88.35
2022-11-15T00:57:25.358Z,85.93
2022-11-15T00:59:52.041Z,86.75
2022-11-15T01:02:18.762Z,85.97
2022-11-15T01:04:45.472Z,83.35
2022-11-15T01:07:12.382Z,86.05
2022-11-15T01:09:39.132Z,86.65
2022-11-15T01:12:05.972Z,86.80
2022-11-15T01:14:32.618Z,83.43
2022-11-15T01:16:59.468Z,84.25
2022-11-15T01:19:26.144Z,87.03
2022-11-15T01:21:53.100Z,82.57
2022-11-15T01:24:19.823Z,85.00
2022-11-15T01:26:46.497Z,84.68
2022-11-15T01:29:13.165Z,85.88
2022-11-15T01:31:39.864Z,89.43
2022-11-15T01:34:06.552Z,82.65
2022-11-15T01:36:33.223Z,84.78
2022-11-15T01:39:00.353Z,86.97
2022-11-15T01:41:30.333Z,81.80
2022-11-15T01:44:16.862Z,84.10
2022-11-15T01:46:48.211Z,88.40
2022-11-15T01:49:21.509Z,85.45
2022-11-15T01:51:48.514Z,85.93
2022-11-15T01:54:18.580Z,89.55
2022-11-15T01:56:56.601Z,85.13
2022-11-15T01:59:23.798Z,86.78
2022-11-15T02:01:51.379Z,91.93
2022-11-15T02:04:22.710Z,83.85
2022-11-15T02:06:49.830Z,83.32
2022-11-15T02:09:17.863Z,84.85
2022-11-15T02:11:46.503Z,91.80
2022-11-15T02:14:16.718Z,84.85
2022-11-15T02:17:06.777Z,86.25
2022-11-15T02:19:33.368Z,85.03
2022-11-15T02:22:37.934Z,88.68
2022-11-15T02:25:32.015Z,90.25
2022-11-15T02:28:23.478Z,90.57
2022-11-15T02:30:56.102Z,85.78
2022-11-15T02:33:44.457Z,87.35
2022-11-15T02:36:14.819Z,86.78
2022-11-15T02:39:03.680Z,84.78
2022-11-15T02:41:40.747Z,91.35
2022-11-15T02:44:25.938Z,93.43
2022-11-15T02:46:56.393Z,90.60
2022-11-15T02:49:25.930Z,93.20
2022-11-15T02:51:55.680Z,89.60
2022-11-15T02:54:27.736Z,93.53
2022-11-15T02:56:59.759Z,93.10
2022-11-15T02:59:37.930Z,92.20
2022-11-15T03:02:23.188Z,88.72
2022-11-15T03:04:55.988Z,95.28
2022-11-15T03:07:52.017Z,92.88
2022-11-15T03:10:21.819Z,93.13
2022-11-15T03:13:05.683Z,89.45
2022-11-15T03:15:38.261Z,90.57
2022-11-15T03:18:28.635Z,90.38
2022-11-15T03:20:56.533Z,87.30
2022-11-15T03:23:23.653Z,95.70
2022-11-15T03:25:53.461Z,91.68
2022-11-15T03:28:34.900Z,96.88
2022-11-15T03:31:04.493Z,97.90
2022-11-15T03:33:31.922Z,97.68
2022-11-15T03:35:59.654Z,103.68
2022-11-15T03:38:30.703Z,100.45
2022-11-15T03:41:04.600Z,101.18
2022-11-15T03:43:49.329Z,122.75
2022-11-15T03:46:24.673Z,132.63
2022-11-15T03:48:57.541Z,113.43
2022-11-15T03:51:24.328Z,103.95
2022-11-15T03:53:51.505Z,135.70
2022-11-15T03:56:18.174Z,166.10
2022-11-15T03:58:44.820Z,139.65
2022-11-15T04:01:11.508Z,108.72
2022-11-15T04:03:38.242Z,93.70
2022-11-15T04:06:05.086Z,93.97
2022-11-15T04:08:31.716Z,87.60
2022-11-15T04:10:59.010Z,79.95
2022-11-15T04:13:25.709Z,81.95
2022-11-15T04:15:52.707Z,86.72
2022-11-15T04:18:19.443Z,83.15
2022-11-15T04:20:46.099Z,85.07
2022-11-15T04:23:17.160Z,89.40
2022-11-15T04:25:45.149Z,83.90
2022-11-15T04:28:12.395Z,87.88
2022-11-15T04:30:39.470Z,80.57
2022-11-15T04:33:06.170Z,84.05
2022-11-15T04:35:33.470Z,84.40
2022-11-15T04:38:00.578Z,84.50
2022-11-15T04:40:27.285Z,84.50
2022-11-15T04:42:54.901Z,84.55
2022-11-15T04:45:22.982Z,85.78
2022-11-15T04:47:49.803Z,91.15
2022-11-15T04:50:17.445Z,92.05
2022-11-15T04:52:51.963Z,83.97
2022-11-15T04:55:18.880Z,81.97
2022-11-15T04:57:45.529Z,89.25
2022-11-15T05:00:14.997Z,88.35
2022-11-15T05:02:41.688Z,86.70
2022-11-15T05:05:08.761Z,86.35
2022-11-15T05:07:35.537Z,85.53
2022-11-15T05:10:02.209Z,85.05
2022-11-15T05:12:28.892Z,84.80
2022-11-15T05:14:55.580Z,85.28
2022-11-15T05:17:22.188Z,84.93
2022-11-15T05:19:48.843Z,83.18
2022-11-15T05:22:15.476Z,81.90
2022-11-15T05:24:42.106Z,84.75
2022-11-15T05:27:08.751Z,83.40
2022-11-15T05:29:35.432Z,86.70
2022-11-15T05:32:02.099Z,83.45
2022-11-15T05:34:28.749Z,79.78
2022-11-15T05:36:55.476Z,83.78
2022-11-15T05:39:22.192Z,89.80
2022-11-15T05:42:03.571Z,95.88
2022-11-15T05:44:31.518Z,99.97
2022-11-15T05:46:58.432Z,95.53
2022-11-15T05:49:30.931Z,90.03
2022-11-15T05:51:58.860Z,87.85
2022-11-15T05:54:25.870Z,93.75
2022-11-15T05:56:53.277Z,97.30
2022-11-15T05:59:20.383Z,95.25
2022-11-15T06:01:47.093Z,86.22
2022-11-15T06:04:13.761Z,82.45
2022-11-15T06:06:40.389Z,83.63
2022-11-15T06:09:07.042Z,88.10
2022-11-15T06:11:33.718Z,96.30
2022-11-15T06:14:00.392Z,88.82
2022-11-15T06:16:27.038Z,100.75
2022-11-15T06:18:53.731Z,91.80
2022-11-15T06:21:21.048Z,117.78
2022-11-15T06:23:47.684Z,142.00
2022-11-15T06:26:14.390Z,99.65
2022-11-15T06:28:41.117Z,85.90
2022-11-15T06:31:10.680Z,108.85
2022-11-15T06:33:37.719Z,93.82
2022-11-15T06:36:06.892Z,146.23
2022-11-15T06:38:33.908Z,374.20
2022-11-15T06:41:08.873Z,237.45
2022-11-15T06:43:36.340Z,136.63
2022-11-15T06:46:05.318Z,106.50
2022-11-15T06:48:33.693Z,87.75
2022-11-15T06:51:02.015Z,88.93
2022-11-15T06:53:29.345Z,84.22
2022-11-15T06:56:04.889Z,90.00
2022-11-15T06:58:32.124Z,85.40
2022-11-15T07:01:05.609Z,95.57
2022-11-15T07:03:33.137Z,92.35
2022-11-15T07:06:06.813Z,86.30
2022-11-15T07:08:34.901Z,88.28
2022-11-15T07:11:03.684Z,89.25
2022-11-15T07:13:32.075Z,86.03
2022-11-15T07:15:58.902Z,82.22
2022-11-15T07:18:25.569Z,82.88
2022-11-15T07:20:52.244Z,90.47
2022-11-15T07:23:18.995Z,83.57
2022-11-15T07:25:46.114Z,87.75
2022-11-15T07:28:13.847Z,83.20
2022-11-15T07:30:45.067Z,83.65
2022-11-15T07:33:12.093Z,83.57
2022-11-15T07:35:38.930Z,84.28
2022-11-15T07:38:05.605Z,80.53
2022-11-15T07:40:33.014Z,81.47
2022-11-15T07:43:04.367Z,85.78
2022-11-15T07:45:31.568Z,81.88
2022-11-15T07:47:58.264Z,75.25
2022-11-15T07:50:25.314Z,83.07
2022-11-15T07:52:57.171Z,79.95
2022-11-15T07:55:25.944Z,81.47
2022-11-15T07:57:52.840Z,80.85
2022-11-15T08:00:20.453Z,78.20
2022-11-15T08:02:47.247Z,79.60
2022-11-15T08:05:14.065Z,76.68
2022-11-15T08:07:40.733Z,80.45
2022-11-15T08:10:08.132Z,76.20
2022-11-15T08:12:34.950Z,79.93
2022-11-15T08:15:01.756Z,79.43
2022-11-15T08:17:28.457Z,84.38
2022-11-15T08:19:55.259Z,78.88
2022-11-15T08:22:21.958Z,79.47
2022-11-15T08:24:48.615Z,80.40
2022-11-15T08:27:15.302Z,84.40
2022-11-15T08:29:45.537Z,78.47
2022-11-15T08:32:12.504Z,76.05
2022-11-15T08:34:39.735Z,80.38
2022-11-15T08:37:06.630Z,72.90
2022-11-15T08:39:33.451Z,76.55
2022-11-15T08:42:00.475Z,69.53
2022-11-15T08:44:27.158Z,78.93
2022-11-15T08:46:53.817Z,71.20
2022-11-15T08:49:20.516Z,77.15
2022-11-15T08:51:47.231Z,75.50
2022-11-15T08:54:13.881Z,71.82
2022-11-15T08:56:40.645Z,77.95
2022-11-15T08:59:07.453Z,78.53
2022-11-15T09:01:34.152Z,71.22
2022-11-15T09:04:00.962Z,68.38
2022-11-15T09:06:27.659Z,68.90
2022-11-15T09:08:54.395Z,65.18
2022-11-15T09:11:21.260Z,78.38
2022-11-15T09:13:48.254Z,68.82
2022-11-15T09:16:14.976Z,70.60
2022-11-15T09:18:42.088Z,69.57
2022-11-15T09:21:09.935Z,65.18
2022-11-15T09:23:36.772Z,70.82
2022-11-15T09:26:04.911Z,70.25
2022-11-15T09:28:32.778Z,67.35
2022-11-15T09:31:04.547Z,67.90
2022-11-15T09:33:32.426Z,74.10
2022-11-15T09:36:04.772Z,68.43
2022-11-15T09:38:32.165Z,59.13
2022-11-15T09:41:18.928Z,64.38
2022-11-15T09:44:26.032Z,60.78
2022-11-15T09:47:00.328Z,62.60
2022-11-15T09:49:27.267Z,58.05
2022-11-15T09:51:55.534Z,53.60
2022-11-15T09:57:52.082Z,53.38
2022-11-15T10:00:48.611Z,61.55
2022-11-15T10:06:03.721Z,54.90
2022-11-15T10:08:55.353Z,62.17
2022-11-15T10:11:40.324Z,51.30
2022-11-15T10:14:28.216Z,59.17
2022-11-15T10:17:00.128Z,55.95
2022-11-15T10:20:16.871Z,51.95
2022-11-15T10:22:55.392Z,55.37
2022-11-15T10:25:24.949Z,54.80
2022-11-15T10:27:56.866Z,54.22
2022-11-15T10:30:25.022Z,50.03
2022-11-15T10:32:51.737Z,52.95
2022-11-15T10:35:28.340Z,66.05
2022-11-15T10:38:10.512Z,46.85
2022-11-15T10:40:38.631Z,46.50
2022-11-15T10:43:07.221Z,40.47
2022-11-15T10:45:34.748Z,43.03
2022-11-15T10:48:13.486Z,46.78
2022-11-15T10:50:42.881Z,44.13
2022-11-15T10:53:42.879Z,47.78
2022-11-15T10:56:14.850Z,52.67
2022-11-15T10:58:51.198Z,43.60
2022-11-15T11:01:24.143Z,44.25
2022-11-15T11:04:01.762Z,43.50
2022-11-15T11:06:29.042Z,44.55
2022-11-15T11:09:01.457Z,41.45
2022-11-15T11:11:48.929Z,43.08
2022-11-15T11:14:24.472Z,43.20
2022-11-15T11:16:53.981Z,41.80
2022-11-15T11:19:32.258Z,40.88
2022-11-15T11:22:54.750Z,37.15
2022-11-15T11:25:36.671Z,40.85
2022-11-15T11:28:26.525Z,39.28
2022-11-15T11:31:07.965Z,36.17
2022-11-15T11:33:42.970Z,41.60
2022-11-15T11:39:31.042Z,40.25
2022-11-15T11:42:14.469Z,37.40
2022-11-15T11:44:58.534Z,37.85
2022-11-15T11:47:32.498Z,40.70
2022-11-15T11:50:05.095Z,33.67
2022-11-15T11:53:03.949Z,35.60
2022-11-15T11:55:37.906Z,40.38
2022-11-15T11:58:22.885Z,42.20
2022-11-15T12:00:58.874Z,35.03
2022-11-15T12:03:28.464Z,38.90
2022-11-15T12:06:07.373Z,35.08
2022-11-15T12:08:48.111Z,39.65
2022-11-15T12:11:39.630Z,33.00
2022-11-15T12:14:17.273Z,36.05
2022-11-15T12:16:44.257Z,38.03
2022-11-15T12:19:11.061Z,34.65
2022-11-15T12:21:48.810Z,39.97
2022-11-15T12:24:15.499Z,36.08
2022-11-15T12:26:55.573Z,34.08
2022-11-15T12:29:36.333Z,30.55
2022-11-15T12:32:03.751Z,33.08
2022-11-15T12:34:41.591Z,35.35
2022-11-15T12:37:47.183Z,34.75
2022-11-15T12:41:00.180Z,32.90
2022-11-15T12:43:44.782Z,80.18
2022-11-15T12:46:29.874Z,31.23
2022-11-15T12:49:28.627Z,33.38
2022-11-15T12:51:58.519Z,29.13
2022-11-15T12:54:25.129Z,31.52
2022-11-15T12:57:06.025Z,30.73
2022-11-15T12:59:55.393Z,30.00
2022-11-15T13:02:35.886Z,35.47
2022-11-15T13:05:14.647Z,29.67
2022-11-15T13:07:41.345Z,33.75
2022-11-15T13:10:11.072Z,29.50
2022-11-15T13:12:46.918Z,29.58
2022-11-15T13:17:54.320Z,32.10
2022-11-15T13:20:32.498Z,53.17
2022-11-15T13:23:14.399Z,37.70
2022-11-15T13:26:01.446Z,30.98
2022-11-15T13:28:43.014Z,26.38
2022-11-15T13:31:35.437Z,39.60
2022-11-15T13:34:49.400Z,30.33
2022-11-15T13:37:28.054Z,32.67
2022-11-15T13:39:54.901Z,36.42
2022-11-15T13:42:22.274Z,36.28
2022-11-15T13:45:02.745Z,57.10
2022-11-15T13:47:30.701Z,33.83
2022-11-15T13:50:01.408Z,26.30
2022-11-15T13:52:34.537Z,28.30
2022-11-15T13:55:06.172Z,27.80
2022-11-15T13:57:44.434Z,32.78
2022-11-15T14:00:29.668Z,34.78
2022-11-15T14:03:05.770Z,25.63
2022-11-15T14:05:32.506Z,30.42
2022-11-15T14:08:13.368Z,27.67
2022-11-15T14:10:40.825Z,26.02
2022-11-15T14:13:30.177Z,26.88
2022-11-15T14:16:14.366Z,29.70
2022-11-15T14:18:44.094Z,29.23
2022-11-15T14:21:11.225Z,31.40
2022-11-15T14:23:37.911Z,30.50
2022-11-15T14:26:11.271Z,29.40
2022-11-15T14:28:38.739Z,32.92
2022-11-15T14:31:13.259Z,31.17
2022-11-15T14:33:41.488Z,33.95
2022-11-15T14:36:13.571Z,30.33
2022-11-15T14:38:41.449Z,36.20
2022-11-15T14:41:19.218Z,35.30
2022-11-15T14:43:46.136Z,28.27
2022-11-15T14:46:21.863Z,27.92
2022-11-15T14:48:50.024Z,33.28
2022-11-15T14:51:22.239Z,28.88
2022-11-15T14:53:51.899Z,30.13
2022-11-15T14:56:18.673Z,33.65
2022-11-15T14:58:45.386Z,28.13
2022-11-15T15:01:22.480Z,33.45
2022-11-15T15:03:49.329Z,35.63
2022-11-15T15:06:18.264Z,39.53
2022-11-15T15:08:48.461Z,35.88
2022-11-15T15:11:21.687Z,33.67
2022-11-15T15:13:52.574Z,38.53
2022-11-15T15:16:20.443Z,36.67
2022-11-15T15:18:47.549Z,34.88
2022-11-15T15:21:47.512Z,32.20
2022-11-15T15:24:17.093Z,39.28
2022-11-15T15:26:44.591Z,39.72
2022-11-15T15:29:11.530Z,35.97
2022-11-15T15:31:39.564Z,34.13
2022-11-15T15:34:06.959Z,36.35
2022-11-15T15:36:39.465Z,36.25
2022-11-15T15:39:06.358Z,34.90
2022-11-15T15:41:33.124Z,36.58
2022-11-15T15:44:00.006Z,38.10
2022-11-15T15:46:26.750Z,42.97
2022-11-15T15:48:53.633Z,41.95
2022-11-15T15:51:20.939Z,37.47
2022-11-15T15:53:48.909Z,35.08
2022-11-15T15:56:15.927Z,41.33
2022-11-15T15:58:42.746Z,42.13
2022-11-15T16:01:09.690Z,42.38
2022-11-15T16:03:36.417Z,37.40
2022-11-15T16:06:03.535Z,38.60
2022-11-15T16:08:42.603Z,47.80
2022-11-15T16:11:17.177Z,39.45
2022-11-15T16:13:44.009Z,42.45
2022-11-15T16:16:14.474Z,35.40
2022-11-15T16:18:41.352Z,42.63
2022-11-15T16:21:09.772Z,35.85
2022-11-15T16:23:36.702Z,37.90
2022-11-15T16:26:08.022Z,38.78
2022-11-15T16:28:35.274Z,44.75
2022-11-15T16:31:02.202Z,42.90
2022-11-15T16:33:29.211Z,43.20
2022-11-15T16:35:56.021Z,42.15
2022-11-15T16:38:23.006Z,44.45
2022-11-15T16:40:50.112Z,47.72
2022-11-15T16:43:16.812Z,46.53
2022-11-15T16:45:43.951Z,50.60
2022-11-15T16:48:28.134Z,53.45
2022-11-15T16:50:58.963Z,52.67
2022-11-15T16:53:27.613Z,57.17
2022-11-15T16:55:55.583Z,59.35
2022-11-15T16:58:22.581Z,56.85
2022-11-15T17:00:56.822Z,57.95
2022-11-15T17:03:24.923Z,61.53
2022-11-15T17:05:52.060Z,59.20
2022-11-15T17:08:19.075Z,64.32
2022-11-15T17:10:45.830Z,67.38
2022-11-15T17:13:13.314Z,67.20
2022-11-15T17:15:40.562Z,65.68
2022-11-15T17:18:07.277Z,65.43
2022-11-15T17:20:33.933Z,71.65
2022-11-15T17:23:00.685Z,71.47
2022-11-15T17:25:27.318Z,71.88
2022-11-15T17:27:55.936Z,76.10
2022-11-15T17:30:22.598Z,75.07
2022-11-15T17:32:49.262Z,73.03
2022-11-15T17:35:18.006Z,77.45
2022-11-15T17:37:44.730Z,74.82
2022-11-15T17:40:11.814Z,74.93
2022-11-15T17:42:41.227Z,77.03
2022-11-15T17:45:10.305Z,75.85
2022-11-15T17:47:39.673Z,77.00
2022-11-15T17:50:06.393Z,75.07
2022-11-15T17:52:33.104Z,79.57
2022-11-15T17:54:59.753Z,79.50
2022-11-15T17:57:26.481Z,78.13
2022-11-15T17:59:53.557Z,76.88
2022-11-15T18:02:23.738Z,85.45
2022-11-15T18:04:53.592Z,75.95
2022-11-15T18:07:21.046Z,78.72
2022-11-15T18:09:51.912Z,79.93
2022-11-15T18:12:20.807Z,77.55
2022-11-15T18:14:47.572Z,82.50
2022-11-15T18:17:19.686Z,84.10
2022-11-15T18:19:48.961Z,79.05
2022-11-15T18:22:15.911Z,76.97
2022-11-15T18:24:42.644Z,79.70
2022-11-15T18:27:09.779Z,76.85
2022-11-15T18:29:36.615Z,75.03
2022-11-15T18:32:04.823Z,81.78
2022-11-15T18:34:34.870Z,82.25
2022-11-15T18:37:02.150Z,76.88
2022-11-15T18:39:29.877Z,77.82
2022-11-15T18:41:56.735Z,79.28
2022-11-15T18:44:23.519Z,78.63
2022-11-15T18:46:50.158Z,82.50
2022-11-15T18:49:17.010Z,83.60
2022-11-15T18:51:44.062Z,84.18
2022-11-15T18:54:12.518Z,84.60
2022-11-15T18:56:39.801Z,87.18
2022-11-15T18:59:06.688Z,85.40
2022-11-15T19:01:38.868Z,84.88
2022-11-15T19:04:08.520Z,81.88
2022-11-15T19:06:41.853Z,86.57
2022-11-15T19:09:09.978Z,84.93
2022-11-15T19:11:38.484Z,94.07
2022-11-15T19:14:13.368Z,92.88
2022-11-15T19:16:42.690Z,91.33
2022-11-15T19:19:14.947Z,97.03
2022-11-15T19:21:42.226Z,102.60
2022-11-15T19:24:09.367Z,98.32
2022-11-15T19:26:36.430Z,95.63
2022-11-15T19:29:04.042Z,100.45
2022-11-15T19:31:31.744Z,100.10
2022-11-15T19:34:03.030Z,102.88
2022-11-15T19:36:32.585Z,92.57
2022-11-15T19:39:01.412Z,104.43
2022-11-15T19:41:28.166Z,103.75
2022-11-15T19:43:54.827Z,100.97
2022-11-15T19:46:23.235Z,101.65
2022-11-15T19:48:51.020Z,96.18
2022-11-15T19:51:20.687Z,101.68
2022-11-15T19:53:48.247Z,96.80
2022-11-15T19:56:16.965Z,99.88
2022-11-15T19:58:44.255Z,95.93
2022-11-15T20:01:21.211Z,90.22
2022-11-15T20:03:49.477Z,91.82
2022-11-15T20:06:18.487Z,94.45
2022-11-15T20:08:46.344Z,92.97
2022-11-15T20:11:13.724Z,96.47
2022-11-15T20:13:40.804Z,97.35
2022-11-15T20:16:07.863Z,107.20
2022-11-15T20:18:35.172Z,93.10
2022-11-15T20:21:02.317Z,93.32
2022-11-15T20:23:29.256Z,88.78
2022-11-15T20:25:55.940Z,86.75
2022-11-15T20:28:24.817Z,88.90
2022-11-15T20:30:53.935Z,82.70
2022-11-15T20:33:25.141Z,82.97
2022-11-15T20:35:52.502Z,87.35
2022-11-15T20:38:19.401Z,84.13
2022-11-15T20:40:46.824Z,82.55
2022-11-15T20:43:16.385Z,86.70
2022-11-15T20:45:46.500Z,85.75
2022-11-15T20:48:13.927Z,82.38
2022-11-15T20:50:43.588Z,83.35
2022-11-15T20:53:17.643Z,82.40
2022-11-15T20:55:47.920Z,81.82
2022-11-15T20:58:18.719Z,82.25
2022-11-15T21:00:46.888Z,86.70
2022-11-15T21:03:14.513Z,82.63
2022-11-15T21:05:42.951Z,80.03
2022-11-15T21:08:14.378Z,81.53
2022-11-15T21:10:41.873Z,82.40
2022-11-15T21:13:08.717Z,80.57
2022-11-15T21:15:37.285Z,78.88
2022-11-15T21:18:04.223Z,78.95
2022-11-15T21:20:36.327Z,75.00
2022-11-15T21:23:03.194Z,79.60
2022-11-15T21:25:30.109Z,80.68
2022-11-15T21:27:56.823Z,80.20
2022-11-15T21:30:23.829Z,84.28
2022-11-15T21:32:53.904Z,80.25
2022-11-15T21:35:20.583Z,83.05
2022-11-15T21:37:51.861Z,83.38
2022-11-15T21:40:22.053Z,82.40
2022-11-15T21:42:48.657Z,76.35
2022-11-15T21:45:15.492Z,79.78
2022-11-15T21:47:46.113Z,83.70
2022-11-15T21:50:13.696Z,80.93
2022-11-15T21:52:40.865Z,83.00
2022-11-15T21:55:09.661Z,79.13
2022-11-15T21:57:36.411Z,85.40
2022-11-15T22:00:04.359Z,80.97
2022-11-15T22:02:31.129Z,81.85
2022-11-15T22:04:57.923Z,86.55
2022-11-15T22:07:24.675Z,87.60
2022-11-15T22:09:51.539Z,79.35
2022-11-15T22:12:18.209Z,80.50
2022-11-15T22:14:44.877Z,84.53
2022-11-15T22:17:11.697Z,85.00
2022-11-15T22:19:51.774Z,81.57
2022-11-15T22:22:19.232Z,83.32
2022-11-15T22:24:45.801Z,82.05
2022-11-15T22:27:12.547Z,87.22
2022-11-15T22:29:39.228Z,85.88
2022-11-15T22:32:05.818Z,88.05
2022-11-15T22:34:32.487Z,85.90
2022-11-15T22:37:19.639Z,89.97
2022-11-15T22:39:45.835Z,86.90
2022-11-15T22:42:12.540Z,86.35
2022-11-15T22:44:39.195Z,89.82
2022-11-15T22:47:05.819Z,94.78
2022-11-15T22:49:32.549Z,90.57
2022-11-15T22:51:59.268Z,92.22
2022-11-15T22:54:25.904Z,97.25
2022-11-15T22:56:52.676Z,90.32
2022-11-15T22:59:19.312Z,88.90
2022-11-15T23:01:45.913Z,93.68
2022-11-15T23:04:13.133Z,89.43
2022-11-15T23:06:39.720Z,90.97
2022-11-15T23:09:06.448Z,87.85
2022-11-15T23:11:33.086Z,86.50
2022-11-15T23:13:59.748Z,87.45
2022-11-15T23:16:26.382Z,94.50
2022-11-15T23:19:10.160Z,91.78
2022-11-15T23:21:54.894Z,92.38
2022-11-15T23:24:22.265Z,97.15
2022-11-15T23:26:50.765Z,85.93
2022-11-15T23:29:19.758Z,92.63
2022-11-15T23:31:46.681Z,93.28
2022-11-15T23:34:13.703Z,88.75
2022-11-15T23:36:42.227Z,89.05
2022-11-15T23:39:09.198Z,86.97
2022-11-15T23:41:36.093Z,89.60
2022-11-15T23:44:03.225Z,93.22
2022-11-15T23:46:30.197Z,85.97
2022-11-15T23:48:56.825Z,89.03
2022-11-15T23:51:23.506Z,83.18
2022-11-15T23:53:50.113Z,89.93
2022-11-15T23:56:18.395Z,79.38
2022-11-15T23:58:46.177Z,86.32
